Terminal Aerodrome Forecast
Issued by NWS

Home | Current Version | Previous Version | Text Only | Print | Product List | Glossary On
Versions: 1 2 3 4 5 6 7 8 9 10 11 12 13 14 15 16 17 18
000
FTUS44 KLZK 291100
TAFPBF
TAF
KPBF 291121Z 2912/3012 12008KT P6SM SCT025
      TEMPO 2912/2916 BKN025
     FM291600 18010G18KT P6SM SCT025 BKN250
     FM300200 VRB06KT P6SM VCSH BKN040 PROB30 3003/3009 -TSRA
      BKN025CB
     FM301000 01008KT P6SM VCSH BKN030=

USA.gov is the U.S. government's official web portal to all federal, state and local government web resources and services.